METAR Data

Data at: 2053 UTC 01 Dec 2021

METAR for:CYZX (Greenwood (MIL), NS, CA)
Text:CYZX 012000Z 19005KT 15SM BKN032 BKN070 04/M01 A3002 RMK SC5AC2 SLP167
Temperature: 4.0°C ( 39°F)
Dewpoint: -1.0°C ( 30°F) [RH = 70%]
Pressure (altimeter):30.02 inches Hg (1016.7 mb) [Sea level pressure: 1016.7 mb]
Winds:from the S (190 degrees) at 6 MPH (5 knots; 2.6 m/s)
Visibility: 15 sm ( 24 km)
Ceiling:3200 feet AGL
Clouds: broken clouds at 3200 feet AGL, broken clouds at 7000 feet AGL